This is the latest recevied weather packets stored in our database for station/object AJ5AG. If no packets are shown the sender has not sent any weather packets the latest 10 day(s).
| Time | Temp. | Humidity | Pressure | Rain* | Wind** | Luminosity | Snow |
|---|---|---|---|---|---|---|---|
| 1777232286 | 30° C | 70% | 1011.5 hPa | 0 mm | - | 705 W/m² | - |
| 1777231981 | 29.44° C | 71% | 1011.6 hPa | 0 mm | - | 644 W/m² | - |
| 1777231679 | 29.44° C | 72% | 1011.7 hPa | 0 mm | - | 764 W/m² | - |
| 1777231375 | 28.89° C | 73% | 1011.6 hPa | 0 mm | - | 695 W/m² | - |
| 1777231071 | 28.89° C | 74% | 1011.7 hPa | 0 mm | - | 634 W/m² | - |
| 1777230768 | 28.33° C | 75% | 1012.1 hPa | 0 mm | - | 562 W/m² | - |
| 1777230462 | 28.33° C | 76% | 1012.1 hPa | 0 mm | - | 218 W/m² | - |
| 1777230159 | 28.89° C | 74% | 1012 hPa | 0 mm | - | 223 W/m² | - |
| 1777229856 | 28.89° C | 73% | 1012.1 hPa | 0 mm | - | 327 W/m² | - |
| 1777229552 | 28.89° C | 73% | 1012.2 hPa | 0 mm | - | 326 W/m² | - |
| 1777229250 | 28.33° C | 75% | 1012.3 hPa | 0 mm | - | 755 W/m² | - |
| 1777228947 | 28.89° C | 74% | 1012.5 hPa | 0 mm | - | 237 W/m² | - |
| 1777228642 | 28.33° C | 75% | 1012.5 hPa | 0 mm | - | 760 W/m² | - |
| 1777228339 | 28.33° C | 75% | 1012.9 hPa | 0 mm | - | 352 W/m² | - |
| 1777228034 | 28.33° C | 75% | 1012.8 hPa | 0 mm | - | 238 W/m² | - |
| 1777227728 | 28.33° C | 75% | 1012.7 hPa | 0 mm | - | 177 W/m² | - |
| 1777227424 | 28.33° C | 77% | 1012.8 hPa | 0 mm | - | 261 W/m² | - |
| 1777227120 | 27.78° C | 76% | 1013.1 hPa | 0 mm | - | 622 W/m² | - |
| 1777226817 | 27.78° C | 76% | 1013 hPa | 0 mm | - | 324 W/m² | - |
| 1777226516 | 28.33° C | 76% | 1012.9 hPa | 0 mm | - | 681 W/m² | - |
| 1777226212 | 27.78° C | 80% | 1013 hPa | 0 mm | - | 761 W/m² | - |
| 1777225908 | 26.67° C | 82% | 1013 hPa | 0 mm | - | 506 W/m² | - |
| 1777225604 | 26.67° C | 83% | 1013.1 hPa | 0 mm | - | 320 W/m² | - |
| 1777225301 | 26.67° C | 83% | 1013 hPa | 0 mm | - | 200 W/m² | - |
| 1777224998 | 26.67° C | 83% | 1013.2 hPa | 0 mm | - | 90 W/m² | - |
* Rain latest hour (hover to see other rain measurements)
** Current wind speed in m/s (hover to see current wind gust speed)